
<gpx xmlns="http://www.topografix.com/GPX/1/1" xmlns:gpxx="http://www.garmin.com/xmlschemas/GpxExtensions/v3" xmlns:xsi="http://www.w3.org/2001/XMLSchema-instance" version="1.1" creator="Adze - https://getadze.com/" xsi:schemaLocation="http://www.topografix.com/GPX/1/1 http://www.topografix.com/GPX/1/1/gpx.xsd http://www.garmin.com/xmlschemas/GpxExtensions/v3 http://www.garmin.com/xmlschemas/GpxExtensionsv3.xsd">
    <metadata>
        <name>Untitled Document</name>
        <link href="http://www.garmin.com"></link>
        <time>2018-03-08T07:06:54.376Z</time>
    </metadata>
    <wpt lon="101.492095" lat="14.598889">
        <ele>363.000000</ele>
        <name>Villa Paradis</name>
        <cmt>26-MAR-10 14:38:08</cmt>
        <desc>26-MAR-10 14:38:08</desc>
        <sym>Lodging</sym>
        <extensions>
            <gpxx:WaypointExtension xmlns:gpxx="http://www.garmin.com/xmlschemas/GpxExtensions/v3">
                <gpxx:DisplayMode>SymbolOnly</gpxx:DisplayMode>
            </gpxx:WaypointExtension>
        </extensions>
    </wpt>
    <wpt lon="101.483295" lat="14.570904">
        <ele>348.000000</ele>
        <name>March 2010 - Saturday water</name>
        <cmt>27-MAR-10 15:01:01</cmt>
        <desc>27-MAR-10 15:01:01</desc>
        <sym>Drinking Water</sym>
        <extensions>
            <gpxx:WaypointExtension xmlns:gpxx="http://www.garmin.com/xmlschemas/GpxExtensions/v3">
                <gpxx:DisplayMode>SymbolOnly</gpxx:DisplayMode>
            </gpxx:WaypointExtension>
        </extensions>
    </wpt>
    <trk>
        <name>March 2010 - Saturday</name>
        <extensions>
            <gpxx:TrackExtension xmlns:gpxx="http://www.garmin.com/xmlschemas/GpxExtensions/v3">
                <gpxx:DisplayColor>Red</gpxx:DisplayColor>
            </gpxx:TrackExtension>
        </extensions>
        <trkseg>
            <trkpt lon="101.491629" lat="14.598778">
                <ele>400.526489</ele>
                <time>2010-03-27T05:27:00Z</time>
            </trkpt>
            <trkpt lon="101.491550" lat="14.599069">
                <ele>366.399536</ele>
                <time>2010-03-27T06:01:27Z</time>
            </trkpt>
            <trkpt lon="101.491683" lat="14.599674">
                <ele>363.996338</ele>
                <time>2010-03-27T06:01:56Z</time>
            </trkpt>
            <trkpt lon="101.491770" lat="14.600026">
                <ele>366.399536</ele>
                <time>2010-03-27T06:02:13Z</time>
            </trkpt>
            <trkpt lon="101.491879" lat="14.600463">
                <ele>365.918945</ele>
                <time>2010-03-27T06:02:29Z</time>
            </trkpt>
            <trkpt lon="101.491984" lat="14.600819">
                <ele>365.918945</ele>
                <time>2010-03-27T06:02:41Z</time>
            </trkpt>
            <trkpt lon="101.492085" lat="14.600821">
                <ele>366.399536</ele>
                <time>2010-03-27T06:02:45Z</time>
            </trkpt>
            <trkpt lon="101.497507" lat="14.599569">
                <ele>395.719849</ele>
                <time>2010-03-27T06:07:23Z</time>
            </trkpt>
            <trkpt lon="101.497902" lat="14.599419">
                <ele>403.410400</ele>
                <time>2010-03-27T06:08:01Z</time>
            </trkpt>
            <trkpt lon="101.498020" lat="14.599220">
                <ele>405.333008</ele>
                <time>2010-03-27T06:08:29Z</time>
            </trkpt>
            <trkpt lon="101.498456" lat="14.598389">
                <ele>404.371704</ele>
                <time>2010-03-27T06:09:00Z</time>
            </trkpt>
            <trkpt lon="101.499675" lat="14.597750">
                <ele>404.371704</ele>
                <time>2010-03-27T06:09:45Z</time>
            </trkpt>
            <trkpt lon="101.500154" lat="14.597589">
                <ele>403.891113</ele>
                <time>2010-03-27T06:09:59Z</time>
            </trkpt>
            <trkpt lon="101.502725" lat="14.597737">
                <ele>411.100952</ele>
                <time>2010-03-27T06:11:13Z</time>
            </trkpt>
            <trkpt lon="101.502903" lat="14.597780">
                <ele>413.023560</ele>
                <time>2010-03-27T06:11:22Z</time>
            </trkpt>
            <trkpt lon="101.502901" lat="14.597892">
                <ele>413.984863</ele>
                <time>2010-03-27T06:11:29Z</time>
            </trkpt>
            <trkpt lon="101.502897" lat="14.598149">
                <ele>415.426880</ele>
                <time>2010-03-27T06:11:40Z</time>
            </trkpt>
            <trkpt lon="101.502759" lat="14.600188">
                <ele>410.620239</ele>
                <time>2010-03-27T06:12:18Z</time>
            </trkpt>
            <trkpt lon="101.504011" lat="14.600340">
                <ele>410.139648</ele>
                <time>2010-03-27T06:13:47Z</time>
            </trkpt>
            <trkpt lon="101.503982" lat="14.600555">
                <ele>412.062256</ele>
                <time>2010-03-27T06:13:59Z</time>
            </trkpt>
            <trkpt lon="101.503826" lat="14.600882">
                <ele>407.255615</ele>
                <time>2010-03-27T06:14:24Z</time>
            </trkpt>
            <trkpt lon="101.503904" lat="14.601196">
                <ele>409.659058</ele>
                <time>2010-03-27T06:14:45Z</time>
            </trkpt>
            <trkpt lon="101.503991" lat="14.601464">
                <ele>408.697632</ele>
                <time>2010-03-27T06:15:03Z</time>
            </trkpt>
            <trkpt lon="101.504190" lat="14.602178">
                <ele>405.813721</ele>
                <time>2010-03-27T06:15:54Z</time>
            </trkpt>
            <trkpt lon="101.504012" lat="14.602613">
                <ele>406.774902</ele>
                <time>2010-03-27T06:16:36Z</time>
            </trkpt>
            <trkpt lon="101.503097" lat="14.603187">
                <ele>404.852295</ele>
                <time>2010-03-27T06:17:54Z</time>
            </trkpt>
            <trkpt lon="101.502699" lat="14.604038">
                <ele>407.255615</ele>
                <time>2010-03-27T06:18:26Z</time>
            </trkpt>
            <trkpt lon="101.502671" lat="14.604627">
                <ele>409.659058</ele>
                <time>2010-03-27T06:18:46Z</time>
            </trkpt>
            <trkpt lon="101.502923" lat="14.605054">
                <ele>408.217041</ele>
                <time>2010-03-27T06:19:02Z</time>
            </trkpt>
            <trkpt lon="101.502788" lat="14.605379">
                <ele>405.333008</ele>
                <time>2010-03-27T06:19:29Z</time>
            </trkpt>
            <trkpt lon="101.502887" lat="14.605948">
                <ele>399.565064</ele>
                <time>2010-03-27T06:20:11Z</time>
            </trkpt>
            <trkpt lon="101.502268" lat="14.607030">
                <ele>391.393799</ele>
                <time>2010-03-27T06:21:17Z</time>
            </trkpt>
            <trkpt lon="101.502459" lat="14.607508">
                <ele>392.355347</ele>
                <time>2010-03-27T06:21:43Z</time>
            </trkpt>
            <trkpt lon="101.502945" lat="14.607621">
                <ele>392.355347</ele>
                <time>2010-03-27T06:21:56Z</time>
            </trkpt>
            <trkpt lon="101.504520" lat="14.607760">
                <ele>394.277954</ele>
                <time>2010-03-27T06:22:41Z</time>
            </trkpt>
            <trkpt lon="101.504616" lat="14.607609">
                <ele>394.277954</ele>
                <time>2010-03-27T06:22:51Z</time>
            </trkpt>
            <trkpt lon="101.505412" lat="14.607406">
                <ele>395.719849</ele>
                <time>2010-03-27T06:23:11Z</time>
            </trkpt>
            <trkpt lon="101.506863" lat="14.606535">
                <ele>401.007080</ele>
                <time>2010-03-27T06:23:58Z</time>
            </trkpt>
            <trkpt lon="101.507964" lat="14.605939">
                <ele>402.929688</ele>
                <time>2010-03-27T06:24:31Z</time>
            </trkpt>
            <trkpt lon="101.508109" lat="14.605617">
                <ele>401.487793</ele>
                <time>2010-03-27T06:24:49Z</time>
            </trkpt>
            <trkpt lon="101.508975" lat="14.605239">
                <ele>403.410400</ele>
                <time>2010-03-27T06:25:12Z</time>
            </trkpt>
            <trkpt lon="101.509075" lat="14.604659">
                <ele>402.449097</ele>
                <time>2010-03-27T06:25:31Z</time>
            </trkpt>
            <trkpt lon="101.510417" lat="14.605083">
                <ele>407.255615</ele>
                <time>2010-03-27T06:26:54Z</time>
            </trkpt>
            <trkpt lon="101.510578" lat="14.604710">
                <ele>409.178345</ele>
                <time>2010-03-27T06:27:49Z</time>
            </trkpt>
            <trkpt lon="101.511913" lat="14.604791">
                <ele>408.697632</ele>
                <time>2010-03-27T06:29:59Z</time>
            </trkpt>
            <trkpt lon="101.512839" lat="14.604506">
                <ele>404.371704</ele>
                <time>2010-03-27T06:30:53Z</time>
            </trkpt>
            <trkpt lon="101.513854" lat="14.604552">
                <ele>405.333008</ele>
                <time>2010-03-27T06:31:42Z</time>
            </trkpt>
            <trkpt lon="101.514454" lat="14.604353">
                <ele>405.813721</ele>
                <time>2010-03-27T06:32:08Z</time>
            </trkpt>
            <trkpt lon="101.514799" lat="14.604436">
                <ele>406.294311</ele>
                <time>2010-03-27T06:32:23Z</time>
            </trkpt>
            <trkpt lon="101.514742" lat="14.603942">
                <ele>405.333008</ele>
                <time>2010-03-27T06:32:48Z</time>
            </trkpt>
            <trkpt lon="101.514995" lat="14.603263">
                <ele>411.100952</ele>
                <time>2010-03-27T06:33:24Z</time>
            </trkpt>
            <trkpt lon="101.515377" lat="14.603108">
                <ele>413.023560</ele>
                <time>2010-03-27T06:33:45Z</time>
            </trkpt>
            <trkpt lon="101.515645" lat="14.602756">
                <ele>415.426880</ele>
                <time>2010-03-27T06:34:13Z</time>
            </trkpt>
            <trkpt lon="101.516098" lat="14.602705">
                <ele>417.349609</ele>
                <time>2010-03-27T06:34:39Z</time>
            </trkpt>
            <trkpt lon="101.515203" lat="14.602802">
                <ele>418.791504</ele>
                <time>2010-03-27T06:35:26Z</time>
            </trkpt>
            <trkpt lon="101.516843" lat="14.602481">
                <ele>418.791504</ele>
                <time>2010-03-27T06:36:33Z</time>
            </trkpt>
            <trkpt lon="101.517766" lat="14.601216">
                <ele>419.752808</ele>
                <time>2010-03-27T06:37:16Z</time>
            </trkpt>
            <trkpt lon="101.518154" lat="14.601000">
                <ele>421.675415</ele>
                <time>2010-03-27T06:37:32Z</time>
            </trkpt>
            <trkpt lon="101.519348" lat="14.600897">
                <ele>420.233398</ele>
                <time>2010-03-27T06:38:00Z</time>
            </trkpt>
            <trkpt lon="101.520834" lat="14.601115">
                <ele>422.636719</ele>
                <time>2010-03-27T06:38:39Z</time>
            </trkpt>
            <trkpt lon="101.521697" lat="14.601517">
                <ele>423.117432</ele>
                <time>2010-03-27T06:39:01Z</time>
            </trkpt>
            <trkpt lon="101.524181" lat="14.601412">
                <ele>425.520752</ele>
                <time>2010-03-27T06:40:08Z</time>
            </trkpt>
            <trkpt lon="101.525277" lat="14.605127">
                <ele>434.172607</ele>
                <time>2010-03-27T06:41:59Z</time>
            </trkpt>
            <trkpt lon="101.525705" lat="14.605528">
                <ele>435.614502</ele>
                <time>2010-03-27T06:42:17Z</time>
            </trkpt>
            <trkpt lon="101.527504" lat="14.606212">
                <ele>451.476318</ele>
                <time>2010-03-27T06:43:28Z</time>
            </trkpt>
            <trkpt lon="101.527863" lat="14.606306">
                <ele>453.398926</ele>
                <time>2010-03-27T06:43:45Z</time>
            </trkpt>
            <trkpt lon="101.528361" lat="14.606340">
                <ele>450.515015</ele>
                <time>2010-03-27T06:43:57Z</time>
            </trkpt>
            <trkpt lon="101.530248" lat="14.605956">
                <ele>449.553711</ele>
                <time>2010-03-27T06:44:35Z</time>
            </trkpt>
            <trkpt lon="101.530587" lat="14.602928">
                <ele>436.575928</ele>
                <time>2010-03-27T06:45:23Z</time>
            </trkpt>
            <trkpt lon="101.530601" lat="14.601421">
                <ele>437.537109</ele>
                <time>2010-03-27T06:46:00Z</time>
            </trkpt>
            <trkpt lon="101.530532" lat="14.600442">
                <ele>437.056519</ele>
                <time>2010-03-27T06:46:20Z</time>
            </trkpt>
            <trkpt lon="101.529776" lat="14.598930">
                <ele>448.592407</ele>
                <time>2010-03-27T06:47:25Z</time>
            </trkpt>
            <trkpt lon="101.529795" lat="14.598509">
                <ele>451.476318</ele>
                <time>2010-03-27T06:47:42Z</time>
            </trkpt>
            <trkpt lon="101.530017" lat="14.598194">
                <ele>453.879639</ele>
                <time>2010-03-27T06:47:59Z</time>
            </trkpt>
            <trkpt lon="101.530600" lat="14.597225">
                <ele>456.282959</ele>
                <time>2010-03-27T06:48:35Z</time>
            </trkpt>
            <trkpt lon="101.531130" lat="14.596135">
                <ele>456.763550</ele>
                <time>2010-03-27T06:49:45Z</time>
            </trkpt>
            <trkpt lon="101.531346" lat="14.593481">
                <ele>452.918213</ele>
                <time>2010-03-27T06:52:27Z</time>
            </trkpt>
            <trkpt lon="101.532605" lat="14.593781">
                <ele>461.570190</ele>
                <time>2010-03-27T06:53:26Z</time>
            </trkpt>
            <trkpt lon="101.532857" lat="14.593346">
                <ele>464.454102</ele>
                <time>2010-03-27T06:53:45Z</time>
            </trkpt>
            <trkpt lon="101.533200" lat="14.592968">
                <ele>467.338135</ele>
                <time>2010-03-27T06:54:04Z</time>
            </trkpt>
            <trkpt lon="101.534010" lat="14.592655">
                <ele>473.586670</ele>
                <time>2010-03-27T06:54:38Z</time>
            </trkpt>
            <trkpt lon="101.534643" lat="14.592211">
                <ele>477.912476</ele>
                <time>2010-03-27T06:55:15Z</time>
            </trkpt>
            <trkpt lon="101.535040" lat="14.591491">
                <ele>486.564453</ele>
                <time>2010-03-27T06:56:06Z</time>
            </trkpt>
            <trkpt lon="101.535108" lat="14.591012">
                <ele>493.293579</ele>
                <time>2010-03-27T06:56:42Z</time>
            </trkpt>
            <trkpt lon="101.534910" lat="14.590538">
                <ele>499.061523</ele>
                <time>2010-03-27T06:57:33Z</time>
            </trkpt>
            <trkpt lon="101.534795" lat="14.590386">
                <ele>500.984131</ele>
                <time>2010-03-27T06:57:52Z</time>
            </trkpt>
            <trkpt lon="101.534683" lat="14.590177">
                <ele>501.945557</ele>
                <time>2010-03-27T06:58:05Z</time>
            </trkpt>
            <trkpt lon="101.534531" lat="14.589970">
                <ele>502.426148</ele>
                <time>2010-03-27T06:58:21Z</time>
            </trkpt>
            <trkpt lon="101.535022" lat="14.589377">
                <ele>491.851685</ele>
                <time>2010-03-27T06:58:56Z</time>
            </trkpt>
            <trkpt lon="101.535463" lat="14.589233">
                <ele>490.890381</ele>
                <time>2010-03-27T06:59:10Z</time>
            </trkpt>
            <trkpt lon="101.536974" lat="14.589292">
                <ele>500.022949</ele>
                <time>2010-03-27T07:00:08Z</time>
            </trkpt>
            <trkpt lon="101.537227" lat="14.589175">
                <ele>499.542236</ele>
                <time>2010-03-27T07:00:19Z</time>
            </trkpt>
            <trkpt lon="101.538084" lat="14.588211">
                <ele>508.674683</ele>
                <time>2010-03-27T07:01:29Z</time>
            </trkpt>
            <trkpt lon="101.539123" lat="14.587375">
                <ele>520.691284</ele>
                <time>2010-03-27T07:02:54Z</time>
            </trkpt>
            <trkpt lon="101.539361" lat="14.586930">
                <ele>527.420410</ele>
                <time>2010-03-27T07:03:36Z</time>
            </trkpt>
            <trkpt lon="101.539644" lat="14.586397">
                <ele>527.420410</ele>
                <time>2010-03-27T07:05:13Z</time>
            </trkpt>
            <trkpt lon="101.539524" lat="14.586178">
                <ele>537.514282</ele>
                <time>2010-03-27T07:05:54Z</time>
            </trkpt>
            <trkpt lon="101.539468" lat="14.586067">
                <ele>538.475708</ele>
                <time>2010-03-27T07:06:09Z</time>
            </trkpt>
            <trkpt lon="101.539288" lat="14.585883">
                <ele>542.320923</ele>
                <time>2010-03-27T07:06:38Z</time>
            </trkpt>
            <trkpt lon="101.538520" lat="14.585160">
                <ele>544.724243</ele>
                <time>2010-03-27T07:07:17Z</time>
            </trkpt>
            <trkpt lon="101.538197" lat="14.584789">
                <ele>542.801514</ele>
                <time>2010-03-27T07:07:31Z</time>
            </trkpt>
            <trkpt lon="101.536936" lat="14.584206">
                <ele>547.608154</ele>
                <time>2010-03-27T07:08:53Z</time>
            </trkpt>
            <trkpt lon="101.536751" lat="14.583946">
                <ele>544.724243</ele>
                <time>2010-03-27T07:09:05Z</time>
            </trkpt>
            <trkpt lon="101.536957" lat="14.583547">
                <ele>541.840210</ele>
                <time>2010-03-27T07:09:21Z</time>
            </trkpt>
            <trkpt lon="101.536877" lat="14.583274">
                <ele>540.878906</ele>
                <time>2010-03-27T07:09:36Z</time>
            </trkpt>
            <trkpt lon="101.536844" lat="14.582937">
                <ele>531.265747</ele>
                <time>2010-03-27T07:10:17Z</time>
            </trkpt>
            <trkpt lon="101.537220" lat="14.582366">
                <ele>527.901001</ele>
                <time>2010-03-27T07:10:39Z</time>
            </trkpt>
            <trkpt lon="101.537371" lat="14.581437">
                <ele>522.613892</ele>
                <time>2010-03-27T07:13:38Z</time>
            </trkpt>
            <trkpt lon="101.537041" lat="14.581946">
                <ele>533.668945</ele>
                <time>2010-03-27T07:14:34Z</time>
            </trkpt>
            <trkpt lon="101.536576" lat="14.582397">
                <ele>543.282104</ele>
                <time>2010-03-27T07:15:46Z</time>
            </trkpt>
            <trkpt lon="101.535894" lat="14.582836">
                <ele>556.260010</ele>
                <time>2010-03-27T07:17:03Z</time>
            </trkpt>
            <trkpt lon="101.535691" lat="14.582978">
                <ele>558.182861</ele>
                <time>2010-03-27T07:17:29Z</time>
            </trkpt>
            <trkpt lon="101.535210" lat="14.583739">
                <ele>567.795654</ele>
                <time>2010-03-27T07:19:02Z</time>
            </trkpt>
            <trkpt lon="101.532973" lat="14.583419">
                <ele>587.983398</ele>
                <time>2010-03-27T07:24:38Z</time>
            </trkpt>
            <trkpt lon="101.532877" lat="14.583478">
                <ele>587.983398</ele>
                <time>2010-03-27T07:24:59Z</time>
            </trkpt>
            <trkpt lon="101.532942" lat="14.583378">
                <ele>590.867432</ele>
                <time>2010-03-27T07:27:42Z</time>
            </trkpt>
            <trkpt lon="101.532516" lat="14.582908">
                <ele>595.193359</ele>
                <time>2010-03-27T07:28:48Z</time>
            </trkpt>
            <trkpt lon="101.531650" lat="14.582444">
                <ele>613.458496</ele>
                <time>2010-03-27T07:32:34Z</time>
            </trkpt>
            <trkpt lon="101.531079" lat="14.582297">
                <ele>617.303711</ele>
                <time>2010-03-27T07:33:30Z</time>
            </trkpt>
            <trkpt lon="101.530661" lat="14.582046">
                <ele>617.303711</ele>
                <time>2010-03-27T07:34:01Z</time>
            </trkpt>
            <trkpt lon="101.530478" lat="14.581709">
                <ele>618.264893</ele>
                <time>2010-03-27T07:34:24Z</time>
            </trkpt>
            <trkpt lon="101.530395" lat="14.581582">
                <ele>618.264893</ele>
                <time>2010-03-27T07:34:34Z</time>
            </trkpt>
            <trkpt lon="101.530232" lat="14.581275">
                <ele>612.016602</ele>
                <time>2010-03-27T07:34:46Z</time>
            </trkpt>
            <trkpt lon="101.530284" lat="14.580947">
                <ele>609.132568</ele>
                <time>2010-03-27T07:35:22Z</time>
            </trkpt>
            <trkpt lon="101.530389" lat="14.580554">
                <ele>601.922607</ele>
                <time>2010-03-27T07:35:37Z</time>
            </trkpt>
            <trkpt lon="101.529836" lat="14.579923">
                <ele>600.961182</ele>
                <time>2010-03-27T07:36:05Z</time>
            </trkpt>
            <trkpt lon="101.529768" lat="14.579757">
                <ele>598.557861</ele>
                <time>2010-03-27T07:36:12Z</time>
            </trkpt>
            <trkpt lon="101.529883" lat="14.579133">
                <ele>589.906250</ele>
                <time>2010-03-27T07:36:27Z</time>
            </trkpt>
            <trkpt lon="101.530296" lat="14.578756">
                <ele>579.812256</ele>
                <time>2010-03-27T07:36:39Z</time>
            </trkpt>
            <trkpt lon="101.530902" lat="14.578433">
                <ele>566.834473</ele>
                <time>2010-03-27T07:36:54Z</time>
            </trkpt>
            <trkpt lon="101.531790" lat="14.578079">
                <ele>565.392578</ele>
                <time>2010-03-27T07:37:18Z</time>
            </trkpt>
            <trkpt lon="101.532211" lat="14.577981">
                <ele>562.508545</ele>
                <time>2010-03-27T07:37:34Z</time>
            </trkpt>
            <trkpt lon="101.532548" lat="14.577824">
                <ele>557.221435</ele>
                <time>2010-03-27T07:37:45Z</time>
            </trkpt>
            <trkpt lon="101.532996" lat="14.577654">
                <ele>548.569336</ele>
                <time>2010-03-27T07:38:07Z</time>
            </trkpt>
            <trkpt lon="101.534008" lat="14.577054">
                <ele>515.884644</ele>
                <time>2010-03-27T07:38:43Z</time>
            </trkpt>
            <trkpt lon="101.534822" lat="14.576894">
                <ele>506.271484</ele>
                <time>2010-03-27T07:38:57Z</time>
            </trkpt>
            <trkpt lon="101.535003" lat="14.576649">
                <ele>504.829468</ele>
                <time>2010-03-27T07:39:22Z</time>
            </trkpt>
            <trkpt lon="101.535185" lat="14.576723">
                <ele>495.216186</ele>
                <time>2010-03-27T07:14:31Z</time>
            </trkpt>
            <trkpt lon="101.534487" lat="14.574184">
                <ele>488.006470</ele>
                <time>2010-03-27T07:15:26Z</time>
            </trkpt>
            <trkpt lon="101.534291" lat="14.572188">
                <ele>479.354492</ele>
                <time>2010-03-27T07:16:01Z</time>
            </trkpt>
            <trkpt lon="101.533751" lat="14.570482">
                <ele>471.663940</ele>
                <time>2010-03-27T07:16:34Z</time>
            </trkpt>
            <trkpt lon="101.533102" lat="14.569874">
                <ele>467.338135</ele>
                <time>2010-03-27T07:16:50Z</time>
            </trkpt>
            <trkpt lon="101.532400" lat="14.568448">
                <ele>462.050781</ele>
                <time>2010-03-27T07:17:21Z</time>
            </trkpt>
            <trkpt lon="101.532336" lat="14.568253">
                <ele>463.492798</ele>
                <time>2010-03-27T07:17:26Z</time>
            </trkpt>
            <trkpt lon="101.532112" lat="14.567454">
                <ele>460.608765</ele>
                <time>2010-03-27T07:17:42Z</time>
            </trkpt>
            <trkpt lon="101.531932" lat="14.566351">
                <ele>461.089477</ele>
                <time>2010-03-27T07:18:03Z</time>
            </trkpt>
            <trkpt lon="101.531573" lat="14.565530">
                <ele>461.089477</ele>
                <time>2010-03-27T07:18:21Z</time>
            </trkpt>
            <trkpt lon="101.530881" lat="14.564734">
                <ele>458.686157</ele>
                <time>2010-03-27T07:18:40Z</time>
            </trkpt>
            <trkpt lon="101.529910" lat="14.565005">
                <ele>460.128174</ele>
                <time>2010-03-27T07:18:59Z</time>
            </trkpt>
            <trkpt lon="101.528846" lat="14.565458">
                <ele>459.166870</ele>
                <time>2010-03-27T07:19:20Z</time>
            </trkpt>
            <trkpt lon="101.527964" lat="14.566146">
                <ele>455.802246</ele>
                <time>2010-03-27T07:19:39Z</time>
            </trkpt>
            <trkpt lon="101.526605" lat="14.566508">
                <ele>450.034424</ele>
                <time>2010-03-27T07:20:00Z</time>
            </trkpt>
            <trkpt lon="101.521630" lat="14.566782">
                <ele>442.824463</ele>
                <time>2010-03-27T07:21:18Z</time>
            </trkpt>
            <trkpt lon="101.519865" lat="14.566234">
                <ele>440.901856</ele>
                <time>2010-03-27T07:21:54Z</time>
            </trkpt>
            <trkpt lon="101.518893" lat="14.566621">
                <ele>436.575928</ele>
                <time>2010-03-27T07:22:12Z</time>
            </trkpt>
            <trkpt lon="101.517829" lat="14.566683">
                <ele>436.575928</ele>
                <time>2010-03-27T07:22:29Z</time>
            </trkpt>
            <trkpt lon="101.516369" lat="14.567058">
                <ele>444.266480</ele>
                <time>2010-03-27T07:23:19Z</time>
            </trkpt>
            <trkpt lon="101.512966" lat="14.568983">
                <ele>453.879639</ele>
                <time>2010-03-27T07:24:57Z</time>
            </trkpt>
            <trkpt lon="101.512092" lat="14.569802">
                <ele>458.686157</ele>
                <time>2010-03-27T07:25:37Z</time>
            </trkpt>
            <trkpt lon="101.511691" lat="14.569871">
                <ele>468.780029</ele>
                <time>2010-03-27T07:26:11Z</time>
            </trkpt>
            <trkpt lon="101.510783" lat="14.570056">
                <ele>463.012085</ele>
                <time>2010-03-27T07:27:25Z</time>
            </trkpt>
            <trkpt lon="101.510780" lat="14.569996">
                <ele>461.570190</ele>
                <time>2010-03-27T07:29:33Z</time>
            </trkpt>
            <trkpt lon="101.510786" lat="14.570049">
                <ele>465.896118</ele>
                <time>2010-03-27T07:30:32Z</time>
            </trkpt>
            <trkpt lon="101.510728" lat="14.570121">
                <ele>467.338135</ele>
                <time>2010-03-27T07:32:03Z</time>
            </trkpt>
            <trkpt lon="101.510443" lat="14.569404">
                <ele>469.260742</ele>
                <time>2010-03-27T07:33:15Z</time>
            </trkpt>
            <trkpt lon="101.510843" lat="14.569299">
                <ele>471.663940</ele>
                <time>2010-03-27T07:33:46Z</time>
            </trkpt>
            <trkpt lon="101.510331" lat="14.569275">
                <ele>473.586670</ele>
                <time>2010-03-27T07:34:26Z</time>
            </trkpt>
            <trkpt lon="101.510072" lat="14.569553">
                <ele>477.912476</ele>
                <time>2010-03-27T07:35:01Z</time>
            </trkpt>
            <trkpt lon="101.509682" lat="14.569463">
                <ele>480.315918</ele>
                <time>2010-03-27T07:35:31Z</time>
            </trkpt>
            <trkpt lon="101.509179" lat="14.569611">
                <ele>487.525635</ele>
                <time>2010-03-27T07:36:10Z</time>
            </trkpt>
            <trkpt lon="101.508696" lat="14.569477">
                <ele>494.255005</ele>
                <time>2010-03-27T07:36:48Z</time>
            </trkpt>
            <trkpt lon="101.508257" lat="14.569486">
                <ele>497.619629</ele>
                <time>2010-03-27T07:37:23Z</time>
            </trkpt>
            <trkpt lon="101.507960" lat="14.569481">
                <ele>497.138916</ele>
                <time>2010-03-27T07:37:39Z</time>
            </trkpt>
            <trkpt lon="101.507609" lat="14.569378">
                <ele>497.138916</ele>
                <time>2010-03-27T07:38:06Z</time>
            </trkpt>
            <trkpt lon="101.507681" lat="14.569350">
                <ele>500.022949</ele>
                <time>2010-03-27T07:38:30Z</time>
            </trkpt>
            <trkpt lon="101.508252" lat="14.568444">
                <ele>508.194092</ele>
                <time>2010-03-27T07:39:17Z</time>
            </trkpt>
            <trkpt lon="101.507618" lat="14.569324">
                <ele>501.464844</ele>
                <time>2010-03-27T07:40:17Z</time>
            </trkpt>
            <trkpt lon="101.507628" lat="14.569334">
                <ele>499.542236</ele>
                <time>2010-03-27T07:40:53Z</time>
            </trkpt>
            <trkpt lon="101.507224" lat="14.568811">
                <ele>495.696899</ele>
                <time>2010-03-27T07:41:20Z</time>
            </trkpt>
            <trkpt lon="101.507677" lat="14.569350">
                <ele>496.658325</ele>
                <time>2010-03-27T07:42:08Z</time>
            </trkpt>
            <trkpt lon="101.507393" lat="14.569124">
                <ele>496.658325</ele>
                <time>2010-03-27T07:42:28Z</time>
            </trkpt>
            <trkpt lon="101.507041" lat="14.568728">
                <ele>495.696899</ele>
                <time>2010-03-27T07:42:43Z</time>
            </trkpt>
            <trkpt lon="101.506772" lat="14.568591">
                <ele>493.293579</ele>
                <time>2010-03-27T07:42:51Z</time>
            </trkpt>
            <trkpt lon="101.506516" lat="14.568094">
                <ele>492.812988</ele>
                <time>2010-03-27T07:43:03Z</time>
            </trkpt>
            <trkpt lon="101.506342" lat="14.567999">
                <ele>491.370972</ele>
                <time>2010-03-27T07:43:08Z</time>
            </trkpt>
            <trkpt lon="101.505526" lat="14.568204">
                <ele>479.835083</ele>
                <time>2010-03-27T07:43:35Z</time>
            </trkpt>
            <trkpt lon="101.504890" lat="14.567770">
                <ele>474.067261</ele>
                <time>2010-03-27T07:43:54Z</time>
            </trkpt>
            <trkpt lon="101.504645" lat="14.567749">
                <ele>471.663940</ele>
                <time>2010-03-27T07:44:01Z</time>
            </trkpt>
            <trkpt lon="101.504269" lat="14.568367">
                <ele>467.338135</ele>
                <time>2010-03-27T07:44:20Z</time>
            </trkpt>
            <trkpt lon="101.503485" lat="14.568526">
                <ele>462.050781</ele>
                <time>2010-03-27T07:44:41Z</time>
            </trkpt>
            <trkpt lon="101.502900" lat="14.568990">
                <ele>443.305054</ele>
                <time>2010-03-27T07:45:25Z</time>
            </trkpt>
            <trkpt lon="101.501178" lat="14.569122">
                <ele>434.653320</ele>
                <time>2010-03-27T07:46:09Z</time>
            </trkpt>
            <trkpt lon="101.500082" lat="14.569358">
                <ele>429.365967</ele>
                <time>2010-03-27T07:46:33Z</time>
            </trkpt>
            <trkpt lon="101.499961" lat="14.569388">
                <ele>427.443359</ele>
                <time>2010-03-27T07:46:36Z</time>
            </trkpt>
            <trkpt lon="101.499929" lat="14.569711">
                <ele>425.520752</ele>
                <time>2010-03-27T07:46:46Z</time>
            </trkpt>
            <trkpt lon="101.499784" lat="14.569768">
                <ele>425.520752</ele>
                <time>2010-03-27T07:46:53Z</time>
            </trkpt>
            <trkpt lon="101.498306" lat="14.569583">
                <ele>417.349609</ele>
                <time>2010-03-27T07:47:40Z</time>
            </trkpt>
            <trkpt lon="101.497316" lat="14.569245">
                <ele>404.852295</ele>
                <time>2010-03-27T07:48:30Z</time>
            </trkpt>
            <trkpt lon="101.495954" lat="14.569130">
                <ele>399.084351</ele>
                <time>2010-03-27T07:49:04Z</time>
            </trkpt>
            <trkpt lon="101.495337" lat="14.569508">
                <ele>395.239136</ele>
                <time>2010-03-27T07:49:21Z</time>
            </trkpt>
            <trkpt lon="101.494726" lat="14.570259">
                <ele>394.758545</ele>
                <time>2010-03-27T07:49:42Z</time>
            </trkpt>
            <trkpt lon="101.494626" lat="14.570366">
                <ele>393.797241</ele>
                <time>2010-03-27T07:49:52Z</time>
            </trkpt>
            <trkpt lon="101.492925" lat="14.571778">
                <ele>369.764282</ele>
                <time>2010-03-27T07:51:19Z</time>
            </trkpt>
            <trkpt lon="101.492633" lat="14.571753">
                <ele>367.841553</ele>
                <time>2010-03-27T07:51:27Z</time>
            </trkpt>
            <trkpt lon="101.492682" lat="14.571298">
                <ele>369.283691</ele>
                <time>2010-03-27T07:51:48Z</time>
            </trkpt>
            <trkpt lon="101.492517" lat="14.571187">
                <ele>369.764282</ele>
                <time>2010-03-27T07:52:01Z</time>
            </trkpt>
            <trkpt lon="101.492173" lat="14.571224">
                <ele>368.802978</ele>
                <time>2010-03-27T07:52:17Z</time>
            </trkpt>
            <trkpt lon="101.491990" lat="14.571183">
                <ele>365.438355</ele>
                <time>2010-03-27T07:52:23Z</time>
            </trkpt>
            <trkpt lon="101.491040" lat="14.570439">
                <ele>363.035034</ele>
                <time>2010-03-27T07:52:51Z</time>
            </trkpt>
            <trkpt lon="101.490597" lat="14.570239">
                <ele>363.035034</ele>
                <time>2010-03-27T07:53:05Z</time>
            </trkpt>
            <trkpt lon="101.490350" lat="14.570427">
                <ele>361.593140</ele>
                <time>2010-03-27T07:53:13Z</time>
            </trkpt>
            <trkpt lon="101.489968" lat="14.570462">
                <ele>360.151123</ele>
                <time>2010-03-27T07:53:23Z</time>
            </trkpt>
            <trkpt lon="101.489313" lat="14.570255">
                <ele>357.747803</ele>
                <time>2010-03-27T07:53:37Z</time>
            </trkpt>
            <trkpt lon="101.488619" lat="14.570391">
                <ele>356.305786</ele>
                <time>2010-03-27T07:53:51Z</time>
            </trkpt>
            <trkpt lon="101.487862" lat="14.570306">
                <ele>354.383179</ele>
                <time>2010-03-27T07:54:07Z</time>
            </trkpt>
            <trkpt lon="101.485687" lat="14.569692">
                <ele>348.134644</ele>
                <time>2010-03-27T07:54:45Z</time>
            </trkpt>
            <trkpt lon="101.485412" lat="14.569441">
                <ele>347.653931</ele>
                <time>2010-03-27T07:54:52Z</time>
            </trkpt>
            <trkpt lon="101.484771" lat="14.569460">
                <ele>347.173218</ele>
                <time>2010-03-27T07:55:09Z</time>
            </trkpt>
            <trkpt lon="101.484483" lat="14.569501">
                <ele>344.289429</ele>
                <time>2010-03-27T07:55:21Z</time>
            </trkpt>
            <trkpt lon="101.483947" lat="14.569362">
                <ele>349.576538</ele>
                <time>2010-03-27T07:55:54Z</time>
            </trkpt>
            <trkpt lon="101.483405" lat="14.569324">
                <ele>347.173218</ele>
                <time>2010-03-27T07:56:11Z</time>
            </trkpt>
            <trkpt lon="101.483175" lat="14.569372">
                <ele>345.250610</ele>
                <time>2010-03-27T07:56:20Z</time>
            </trkpt>
            <trkpt lon="101.483372" lat="14.569990">
                <ele>338.521484</ele>
                <time>2010-03-27T07:56:39Z</time>
            </trkpt>
            <trkpt lon="101.483914" lat="14.569973">
                <ele>340.924683</ele>
                <time>2010-03-27T07:56:56Z</time>
            </trkpt>
            <trkpt lon="101.484099" lat="14.570162">
                <ele>339.002075</ele>
                <time>2010-03-27T07:57:05Z</time>
            </trkpt>
            <trkpt lon="101.483875" lat="14.570503">
                <ele>334.676148</ele>
                <time>2010-03-27T07:57:24Z</time>
            </trkpt>
            <trkpt lon="101.483913" lat="14.570855">
                <ele>336.598877</ele>
                <time>2010-03-27T07:57:55Z</time>
            </trkpt>
            <trkpt lon="101.484095" lat="14.571292">
                <ele>334.195435</ele>
                <time>2010-03-27T07:58:09Z</time>
            </trkpt>
            <trkpt lon="101.484114" lat="14.571345">
                <ele>333.714722</ele>
                <time>2010-03-27T07:58:18Z</time>
            </trkpt>
            <trkpt lon="101.483732" lat="14.571250">
                <ele>341.885986</ele>
                <time>2010-03-27T07:59:49Z</time>
            </trkpt>
            <trkpt lon="101.483274" lat="14.570902">
                <ele>353.421875</ele>
                <time>2010-03-27T08:15:22Z</time>
            </trkpt>
            <trkpt lon="101.483123" lat="14.570681">
                <ele>346.692627</ele>
                <time>2010-03-27T08:29:48Z</time>
            </trkpt>
            <trkpt lon="101.482787" lat="14.570725">
                <ele>345.250610</ele>
                <time>2010-03-27T08:29:58Z</time>
            </trkpt>
            <trkpt lon="101.479901" lat="14.571579">
                <ele>350.537842</ele>
                <time>2010-03-27T08:32:01Z</time>
            </trkpt>
            <trkpt lon="101.478587" lat="14.571024">
                <ele>354.383179</ele>
                <time>2010-03-27T08:32:47Z</time>
            </trkpt>
            <trkpt lon="101.477722" lat="14.571029">
                <ele>355.344482</ele>
                <time>2010-03-27T08:33:15Z</time>
            </trkpt>
            <trkpt lon="101.477303" lat="14.571174">
                <ele>357.747803</ele>
                <time>2010-03-27T08:33:29Z</time>
            </trkpt>
            <trkpt lon="101.475869" lat="14.571143">
                <ele>368.802978</ele>
                <time>2010-03-27T08:34:32Z</time>
            </trkpt>
            <trkpt lon="101.474118" lat="14.570895">
                <ele>373.128906</ele>
                <time>2010-03-27T08:35:31Z</time>
            </trkpt>
            <trkpt lon="101.473513" lat="14.571030">
                <ele>374.090088</ele>
                <time>2010-03-27T08:35:51Z</time>
            </trkpt>
            <trkpt lon="101.470815" lat="14.573240">
                <ele>384.664795</ele>
                <time>2010-03-27T08:37:51Z</time>
            </trkpt>
            <trkpt lon="101.469137" lat="14.573750">
                <ele>403.891113</ele>
                <time>2010-03-27T08:39:40Z</time>
            </trkpt>
            <trkpt lon="101.467771" lat="14.573134">
                <ele>424.559448</ele>
                <time>2010-03-27T08:42:16Z</time>
            </trkpt>
            <trkpt lon="101.467325" lat="14.572931">
                <ele>427.443359</ele>
                <time>2010-03-27T08:42:50Z</time>
            </trkpt>
            <trkpt lon="101.466425" lat="14.572394">
                <ele>424.078735</ele>
                <time>2010-03-27T08:43:20Z</time>
            </trkpt>
            <trkpt lon="101.465741" lat="14.571832">
                <ele>417.830200</ele>
                <time>2010-03-27T08:43:47Z</time>
            </trkpt>
            <trkpt lon="101.465824" lat="14.570817">
                <ele>415.907471</ele>
                <time>2010-03-27T08:44:15Z</time>
            </trkpt>
            <trkpt lon="101.466266" lat="14.570044">
                <ele>420.714111</ele>
                <time>2010-03-27T08:44:34Z</time>
            </trkpt>
            <trkpt lon="101.467375" lat="14.567904">
                <ele>416.388184</ele>
                <time>2010-03-27T08:45:19Z</time>
            </trkpt>
            <trkpt lon="101.467155" lat="14.567519">
                <ele>412.542847</ele>
                <time>2010-03-27T08:45:32Z</time>
            </trkpt>
            <trkpt lon="101.465311" lat="14.566142">
                <ele>413.504273</ele>
                <time>2010-03-27T08:46:53Z</time>
            </trkpt>
            <trkpt lon="101.464746" lat="14.565431">
                <ele>417.349609</ele>
                <time>2010-03-27T08:47:36Z</time>
            </trkpt>
            <trkpt lon="101.464403" lat="14.564554">
                <ele>430.327270</ele>
                <time>2010-03-27T08:48:33Z</time>
            </trkpt>
            <trkpt lon="101.464220" lat="14.564140">
                <ele>432.250000</ele>
                <time>2010-03-27T08:48:57Z</time>
            </trkpt>
            <trkpt lon="101.464092" lat="14.564047">
                <ele>443.305054</ele>
                <time>2010-03-27T08:50:29Z</time>
            </trkpt>
            <trkpt lon="101.464013" lat="14.564037">
                <ele>445.227661</ele>
                <time>2010-03-27T08:52:21Z</time>
            </trkpt>
            <trkpt lon="101.463508" lat="14.563294">
                <ele>438.498535</ele>
                <time>2010-03-27T08:53:02Z</time>
            </trkpt>
            <trkpt lon="101.463913" lat="14.563848">
                <ele>443.305054</ele>
                <time>2010-03-27T08:53:42Z</time>
            </trkpt>
            <trkpt lon="101.463701" lat="14.564084">
                <ele>440.901856</ele>
                <time>2010-03-27T08:54:00Z</time>
            </trkpt>
            <trkpt lon="101.463166" lat="14.564315">
                <ele>441.382446</ele>
                <time>2010-03-27T08:54:24Z</time>
            </trkpt>
            <trkpt lon="101.463292" lat="14.567256">
                <ele>456.763550</ele>
                <time>2010-03-27T08:57:02Z</time>
            </trkpt>
            <trkpt lon="101.463116" lat="14.567346">
                <ele>455.321533</ele>
                <time>2010-03-27T08:57:17Z</time>
            </trkpt>
            <trkpt lon="101.462491" lat="14.567144">
                <ele>454.360230</ele>
                <time>2010-03-27T08:57:34Z</time>
            </trkpt>
            <trkpt lon="101.461230" lat="14.566709">
                <ele>449.553711</ele>
                <time>2010-03-27T08:57:58Z</time>
            </trkpt>
            <trkpt lon="101.460645" lat="14.566409">
                <ele>448.111816</ele>
                <time>2010-03-27T08:58:09Z</time>
            </trkpt>
            <trkpt lon="101.460170" lat="14.565698">
                <ele>445.708374</ele>
                <time>2010-03-27T08:58:26Z</time>
            </trkpt>
            <trkpt lon="101.458778" lat="14.563411">
                <ele>429.846558</ele>
                <time>2010-03-27T08:59:38Z</time>
            </trkpt>
            <trkpt lon="101.458209" lat="14.563462">
                <ele>428.404663</ele>
                <time>2010-03-27T08:59:59Z</time>
            </trkpt>
            <trkpt lon="101.457994" lat="14.563755">
                <ele>425.040161</ele>
                <time>2010-03-27T09:00:13Z</time>
            </trkpt>
            <trkpt lon="101.457578" lat="14.563993">
                <ele>420.233398</ele>
                <time>2010-03-27T09:00:31Z</time>
            </trkpt>
            <trkpt lon="101.456579" lat="14.564622">
                <ele>400.526489</ele>
                <time>2010-03-27T09:01:22Z</time>
            </trkpt>
            <trkpt lon="101.456151" lat="14.564456">
                <ele>397.161743</ele>
                <time>2010-03-27T09:01:39Z</time>
            </trkpt>
            <trkpt lon="101.455557" lat="14.564673">
                <ele>389.471191</ele>
                <time>2010-03-27T09:01:57Z</time>
            </trkpt>
            <trkpt lon="101.455548" lat="14.565534">
                <ele>378.896851</ele>
                <time>2010-03-27T09:02:25Z</time>
            </trkpt>
            <trkpt lon="101.455324" lat="14.565691">
                <ele>376.974243</ele>
                <time>2010-03-27T09:02:36Z</time>
            </trkpt>
            <trkpt lon="101.454192" lat="14.565602">
                <ele>379.858032</ele>
                <time>2010-03-27T09:03:15Z</time>
            </trkpt>
            <trkpt lon="101.454215" lat="14.565743">
                <ele>383.703247</ele>
                <time>2010-03-27T09:04:05Z</time>
            </trkpt>
            <trkpt lon="101.454457" lat="14.566006">
                <ele>382.261352</ele>
                <time>2010-03-27T09:04:21Z</time>
            </trkpt>
            <trkpt lon="101.455505" lat="14.568165">
                <ele>371.206299</ele>
                <time>2010-03-27T09:05:27Z</time>
            </trkpt>
            <trkpt lon="101.455455" lat="14.568472">
                <ele>370.244873</ele>
                <time>2010-03-27T09:05:38Z</time>
            </trkpt>
            <trkpt lon="101.455091" lat="14.568592">
                <ele>374.570801</ele>
                <time>2010-03-27T09:06:03Z</time>
            </trkpt>
            <trkpt lon="101.455094" lat="14.568680">
                <ele>375.532105</ele>
                <time>2010-03-27T09:06:10Z</time>
            </trkpt>
            <trkpt lon="101.455273" lat="14.568848">
                <ele>377.935425</ele>
                <time>2010-03-27T09:06:28Z</time>
            </trkpt>
            <trkpt lon="101.455739" lat="14.568986">
                <ele>376.012817</ele>
                <time>2010-03-27T09:06:42Z</time>
            </trkpt>
            <trkpt lon="101.456374" lat="14.569736">
                <ele>385.145386</ele>
                <time>2010-03-27T09:07:20Z</time>
            </trkpt>
            <trkpt lon="101.456479" lat="14.570035">
                <ele>388.510010</ele>
                <time>2010-03-27T09:07:34Z</time>
            </trkpt>
            <trkpt lon="101.457125" lat="14.570421">
                <ele>392.835938</ele>
                <time>2010-03-27T09:08:38Z</time>
            </trkpt>
            <trkpt lon="101.456565" lat="14.570790">
                <ele>392.355347</ele>
                <time>2010-03-27T09:09:22Z</time>
            </trkpt>
            <trkpt lon="101.456561" lat="14.570758">
                <ele>395.239136</ele>
                <time>2010-03-27T09:09:28Z</time>
            </trkpt>
            <trkpt lon="101.456264" lat="14.570763">
                <ele>397.161743</ele>
                <time>2010-03-27T09:09:43Z</time>
            </trkpt>
            <trkpt lon="101.456098" lat="14.570815">
                <ele>399.565064</ele>
                <time>2010-03-27T09:10:23Z</time>
            </trkpt>
            <trkpt lon="101.455579" lat="14.570764">
                <ele>401.007080</ele>
                <time>2010-03-27T09:11:25Z</time>
            </trkpt>
            <trkpt lon="101.455141" lat="14.570482">
                <ele>395.719849</ele>
                <time>2010-03-27T09:11:41Z</time>
            </trkpt>
            <trkpt lon="101.454705" lat="14.569915">
                <ele>385.625977</ele>
                <time>2010-03-27T09:11:55Z</time>
            </trkpt>
            <trkpt lon="101.454504" lat="14.570020">
                <ele>382.261352</ele>
                <time>2010-03-27T09:12:05Z</time>
            </trkpt>
            <trkpt lon="101.454536" lat="14.571071">
                <ele>380.819458</ele>
                <time>2010-03-27T09:12:37Z</time>
            </trkpt>
            <trkpt lon="101.453861" lat="14.571187">
                <ele>378.416138</ele>
                <time>2010-03-27T09:12:52Z</time>
            </trkpt>
            <trkpt lon="101.453549" lat="14.570914">
                <ele>374.090088</ele>
                <time>2010-03-27T09:13:02Z</time>
            </trkpt>
            <trkpt lon="101.453411" lat="14.570532">
                <ele>372.167481</ele>
                <time>2010-03-27T09:13:12Z</time>
            </trkpt>
            <trkpt lon="101.452524" lat="14.569945">
                <ele>368.322266</ele>
                <time>2010-03-27T09:13:30Z</time>
            </trkpt>
            <trkpt lon="101.451913" lat="14.569861">
                <ele>365.438355</ele>
                <time>2010-03-27T09:13:39Z</time>
            </trkpt>
            <trkpt lon="101.451512" lat="14.570155">
                <ele>363.035034</ele>
                <time>2010-03-27T09:13:48Z</time>
            </trkpt>
            <trkpt lon="101.451432" lat="14.570720">
                <ele>363.035034</ele>
                <time>2010-03-27T09:13:59Z</time>
            </trkpt>
            <trkpt lon="101.451185" lat="14.570963">
                <ele>360.151123</ele>
                <time>2010-03-27T09:14:07Z</time>
            </trkpt>
            <trkpt lon="101.450877" lat="14.571033">
                <ele>358.228394</ele>
                <time>2010-03-27T09:14:15Z</time>
            </trkpt>
            <trkpt lon="101.450891" lat="14.571580">
                <ele>356.305786</ele>
                <time>2010-03-27T09:14:28Z</time>
            </trkpt>
            <trkpt lon="101.451261" lat="14.573649">
                <ele>353.421875</ele>
                <time>2010-03-27T09:15:04Z</time>
            </trkpt>
            <trkpt lon="101.451627" lat="14.574552">
                <ele>352.941162</ele>
                <time>2010-03-27T09:15:20Z</time>
            </trkpt>
            <trkpt lon="101.451950" lat="14.575276">
                <ele>350.057251</ele>
                <time>2010-03-27T09:15:33Z</time>
            </trkpt>
            <trkpt lon="101.452477" lat="14.575974">
                <ele>347.173218</ele>
                <time>2010-03-27T09:15:46Z</time>
            </trkpt>
            <trkpt lon="101.453895" lat="14.577485">
                <ele>347.173218</ele>
                <time>2010-03-27T09:16:23Z</time>
            </trkpt>
            <trkpt lon="101.453924" lat="14.577525">
                <ele>346.692627</ele>
                <time>2010-03-27T09:16:24Z</time>
            </trkpt>
            <trkpt lon="101.454321" lat="14.579634">
                <ele>346.212036</ele>
                <time>2010-03-27T09:17:03Z</time>
            </trkpt>
            <trkpt lon="101.455058" lat="14.581587">
                <ele>343.327881</ele>
                <time>2010-03-27T09:17:38Z</time>
            </trkpt>
            <trkpt lon="101.454988" lat="14.582025">
                <ele>341.885986</ele>
                <time>2010-03-27T09:17:45Z</time>
            </trkpt>
            <trkpt lon="101.454734" lat="14.582390">
                <ele>340.924683</ele>
                <time>2010-03-27T09:17:52Z</time>
            </trkpt>
            <trkpt lon="101.454633" lat="14.582684">
                <ele>339.963379</ele>
                <time>2010-03-27T09:17:57Z</time>
            </trkpt>
            <trkpt lon="101.453971" lat="14.588516">
                <ele>336.118164</ele>
                <time>2010-03-27T09:19:37Z</time>
            </trkpt>
            <trkpt lon="101.453945" lat="14.588731">
                <ele>335.637329</ele>
                <time>2010-03-27T09:19:41Z</time>
            </trkpt>
            <trkpt lon="101.453897" lat="14.595970">
                <ele>328.427612</ele>
                <time>2010-03-27T09:21:40Z</time>
            </trkpt>
            <trkpt lon="101.453727" lat="14.596131">
                <ele>319.295044</ele>
                <time>2010-03-27T09:21:43Z</time>
            </trkpt>
            <trkpt lon="101.454331" lat="14.597090">
                <ele>321.698364</ele>
                <time>2010-03-27T09:22:02Z</time>
            </trkpt>
            <trkpt lon="101.455094" lat="14.597987">
                <ele>323.140381</ele>
                <time>2010-03-27T09:22:21Z</time>
            </trkpt>
            <trkpt lon="101.457882" lat="14.601272">
                <ele>323.620972</ele>
                <time>2010-03-27T09:23:30Z</time>
            </trkpt>
            <trkpt lon="101.458152" lat="14.601419">
                <ele>323.620972</ele>
                <time>2010-03-27T09:23:35Z</time>
            </trkpt>
            <trkpt lon="101.460240" lat="14.601736">
                <ele>324.582275</ele>
                <time>2010-03-27T09:24:13Z</time>
            </trkpt>
            <trkpt lon="101.462144" lat="14.601336">
                <ele>324.582275</ele>
                <time>2010-03-27T09:24:50Z</time>
            </trkpt>
            <trkpt lon="101.463215" lat="14.600915">
                <ele>325.543579</ele>
                <time>2010-03-27T09:25:30Z</time>
            </trkpt>
            <trkpt lon="101.466582" lat="14.599205">
                <ele>331.311523</ele>
                <time>2010-03-27T09:27:59Z</time>
            </trkpt>
            <trkpt lon="101.467586" lat="14.598725">
                <ele>332.753540</ele>
                <time>2010-03-27T09:28:31Z</time>
            </trkpt>
            <trkpt lon="101.467898" lat="14.598550">
                <ele>332.272827</ele>
                <time>2010-03-27T09:28:42Z</time>
            </trkpt>
            <trkpt lon="101.468243" lat="14.598411">
                <ele>333.234131</ele>
                <time>2010-03-27T09:28:52Z</time>
            </trkpt>
            <trkpt lon="101.468693" lat="14.598512">
                <ele>335.637329</ele>
                <time>2010-03-27T09:29:07Z</time>
            </trkpt>
            <trkpt lon="101.469547" lat="14.598421">
                <ele>340.444092</ele>
                <time>2010-03-27T09:29:42Z</time>
            </trkpt>
            <trkpt lon="101.469667" lat="14.598286">
                <ele>340.924683</ele>
                <time>2010-03-27T09:29:51Z</time>
            </trkpt>
            <trkpt lon="101.470092" lat="14.598192">
                <ele>337.560059</ele>
                <time>2010-03-27T09:30:10Z</time>
            </trkpt>
            <trkpt lon="101.469963" lat="14.598759">
                <ele>336.598877</ele>
                <time>2010-03-27T09:30:27Z</time>
            </trkpt>
            <trkpt lon="101.469638" lat="14.599344">
                <ele>338.521484</ele>
                <time>2010-03-27T09:30:43Z</time>
            </trkpt>
            <trkpt lon="101.469224" lat="14.600348">
                <ele>338.040772</ele>
                <time>2010-03-27T09:31:06Z</time>
            </trkpt>
            <trkpt lon="101.469034" lat="14.601216">
                <ele>339.482666</ele>
                <time>2010-03-27T09:31:23Z</time>
            </trkpt>
            <trkpt lon="101.468666" lat="14.601827">
                <ele>339.963379</ele>
                <time>2010-03-27T09:31:38Z</time>
            </trkpt>
            <trkpt lon="101.468254" lat="14.602638">
                <ele>338.040772</ele>
                <time>2010-03-27T09:31:58Z</time>
            </trkpt>
            <trkpt lon="101.468343" lat="14.602857">
                <ele>337.560059</ele>
                <time>2010-03-27T09:32:07Z</time>
            </trkpt>
            <trkpt lon="101.469118" lat="14.603367">
                <ele>337.560059</ele>
                <time>2010-03-27T09:32:27Z</time>
            </trkpt>
            <trkpt lon="101.469910" lat="14.603891">
                <ele>333.714722</ele>
                <time>2010-03-27T09:32:43Z</time>
            </trkpt>
            <trkpt lon="101.471752" lat="14.605147">
                <ele>329.388916</ele>
                <time>2010-03-27T09:33:15Z</time>
            </trkpt>
            <trkpt lon="101.472734" lat="14.605907">
                <ele>327.946777</ele>
                <time>2010-03-27T09:33:34Z</time>
            </trkpt>
            <trkpt lon="101.473698" lat="14.607053">
                <ele>330.830933</ele>
                <time>2010-03-27T09:34:01Z</time>
            </trkpt>
            <trkpt lon="101.473910" lat="14.606991">
                <ele>329.869507</ele>
                <time>2010-03-27T09:34:08Z</time>
            </trkpt>
            <trkpt lon="101.475347" lat="14.605619">
                <ele>327.466186</ele>
                <time>2010-03-27T09:34:48Z</time>
            </trkpt>
            <trkpt lon="101.475473" lat="14.605392">
                <ele>326.985596</ele>
                <time>2010-03-27T09:34:55Z</time>
            </trkpt>
            <trkpt lon="101.475952" lat="14.605441">
                <ele>326.504883</ele>
                <time>2010-03-27T09:35:06Z</time>
            </trkpt>
            <trkpt lon="101.476602" lat="14.605793">
                <ele>326.985596</ele>
                <time>2010-03-27T09:35:20Z</time>
            </trkpt>
            <trkpt lon="101.476893" lat="14.605742">
                <ele>326.985596</ele>
                <time>2010-03-27T09:35:27Z</time>
            </trkpt>
            <trkpt lon="101.477668" lat="14.604900">
                <ele>326.985596</ele>
                <time>2010-03-27T09:35:50Z</time>
            </trkpt>
            <trkpt lon="101.477681" lat="14.604297">
                <ele>326.985596</ele>
                <time>2010-03-27T09:36:04Z</time>
            </trkpt>
            <trkpt lon="101.477846" lat="14.604192">
                <ele>327.466186</ele>
                <time>2010-03-27T09:36:09Z</time>
            </trkpt>
            <trkpt lon="101.480861" lat="14.603525">
                <ele>338.040772</ele>
                <time>2010-03-27T09:37:23Z</time>
            </trkpt>
            <trkpt lon="101.489880" lat="14.601341">
                <ele>355.825195</ele>
                <time>2010-03-27T09:40:50Z</time>
            </trkpt>
            <trkpt lon="101.491998" lat="14.600705">
                <ele>362.073731</ele>
                <time>2010-03-27T09:41:47Z</time>
            </trkpt>
            <trkpt lon="101.491865" lat="14.600255">
                <ele>365.438355</ele>
                <time>2010-03-27T09:41:59Z</time>
            </trkpt>
            <trkpt lon="101.491569" lat="14.599166">
                <ele>362.554321</ele>
                <time>2010-03-27T09:42:24Z</time>
            </trkpt>
            <trkpt lon="101.491469" lat="14.599005">
                <ele>363.515747</ele>
                <time>2010-03-27T09:42:29Z</time>
            </trkpt>
            <trkpt lon="101.491423" lat="14.598699">
                <ele>364.957642</ele>
                <time>2010-03-27T09:42:38Z</time>
            </trkpt>
            <trkpt lon="101.491571" lat="14.598768">
                <ele>366.399536</ele>
                <time>2010-03-27T09:43:24Z</time>
            </trkpt>
            <trkpt lon="101.491564" lat="14.598767">
                <ele>363.996338</ele>
                <time>2010-03-27T09:43:49Z</time>
            </trkpt>
        </trkseg>
    </trk>
    <trk>
        <name>March 2010 - Saturday shortcut</name>
        <extensions>
            <gpxx:TrackExtension xmlns:gpxx="http://www.garmin.com/xmlschemas/GpxExtensions/v3">
                <gpxx:DisplayColor>DarkRed</gpxx:DisplayColor>
            </gpxx:TrackExtension>
        </extensions>
        <trkseg>
            <trkpt lon="101.537605" lat="14.581567">
                <ele>524.055786</ele>
                <time>2010-03-27T07:10:59Z</time>
            </trkpt>
            <trkpt lon="101.537613" lat="14.581521">
                <ele>524.536499</ele>
                <time>2010-03-27T07:11:00Z</time>
            </trkpt>
            <trkpt lon="101.537632" lat="14.581212">
                <ele>524.536499</ele>
                <time>2010-03-27T07:11:11Z</time>
            </trkpt>
            <trkpt lon="101.537598" lat="14.581187">
                <ele>515.404053</ele>
                <time>2010-03-27T07:11:28Z</time>
            </trkpt>
            <trkpt lon="101.537541" lat="14.581154">
                <ele>513.962036</ele>
                <time>2010-03-27T07:11:57Z</time>
            </trkpt>
            <trkpt lon="101.537540" lat="14.581087">
                <ele>513.962036</ele>
                <time>2010-03-27T07:12:01Z</time>
            </trkpt>
            <trkpt lon="101.537605" lat="14.580600">
                <ele>513.481445</ele>
                <time>2010-03-27T07:12:16Z</time>
            </trkpt>
            <trkpt lon="101.537864" lat="14.579823">
                <ele>513.481445</ele>
                <time>2010-03-27T07:12:34Z</time>
            </trkpt>
            <trkpt lon="101.537943" lat="14.579625">
                <ele>513.481445</ele>
                <time>2010-03-27T07:12:38Z</time>
            </trkpt>
            <trkpt lon="101.538169" lat="14.579191">
                <ele>510.597290</ele>
                <time>2010-03-27T07:12:49Z</time>
            </trkpt>
            <trkpt lon="101.538174" lat="14.579052">
                <ele>511.558716</ele>
                <time>2010-03-27T07:12:54Z</time>
            </trkpt>
            <trkpt lon="101.537797" lat="14.578614">
                <ele>508.194092</ele>
                <time>2010-03-27T07:13:14Z</time>
            </trkpt>
            <trkpt lon="101.537297" lat="14.578399">
                <ele>509.155395</ele>
                <time>2010-03-27T07:13:28Z</time>
            </trkpt>
            <trkpt lon="101.536661" lat="14.578258">
                <ele>511.078003</ele>
                <time>2010-03-27T07:13:44Z</time>
            </trkpt>
            <trkpt lon="101.536192" lat="14.578040">
                <ele>508.194092</ele>
                <time>2010-03-27T07:13:57Z</time>
            </trkpt>
            <trkpt lon="101.535667" lat="14.577528">
                <ele>502.426148</ele>
                <time>2010-03-27T07:14:13Z</time>
            </trkpt>
            <trkpt lon="101.535185" lat="14.576723">
                <ele>495.216186</ele>
                <time>2010-03-27T07:14:31Z</time>
            </trkpt>
        </trkseg>
    </trk>
</gpx>